Time;durP1;ratioP1;P1;durP2;ratioP2;P2;SDS_P1;SDS_P2;PMS_P1;PMS_P2;Temp;Humidity;BMP_temperature;BMP_pressure;BME280_temperature;BME280_humidity;BME280_pressure;Samples;Min_cycle;Max_cycle;Signal;HPM_P1;HPM_P2
2023/09/25 00:02:24;;;;;;;9.95;9.65;;;14.20;99.90;;;;;;5071005;28;20226;-63
2023/09/25 00:04:51;;;;;;;10.20;9.82;;;14.10;99.90;;;;;;5069532;28;20235;-64
2023/09/25 00:07:18;;;;;;;10.43;10.02;;;13.90;99.90;;;;;;5067983;28;20218;-65
2023/09/25 00:09:45;;;;;;;9.93;9.52;;;13.80;99.90;;;;;;5070019;28;20639;-65
2023/09/25 00:12:12;;;;;;;10.17;9.77;;;13.70;99.90;;;;;;5073546;28;20211;-64
2023/09/25 00:14:40;;;;;;;10.07;9.77;;;13.60;99.90;;;;;;5074590;28;20213;-64
2023/09/25 00:17:07;;;;;;;10.32;10.02;;;13.50;99.90;;;;;;5074171;28;20215;-64
2023/09/25 00:19:34;;;;;;;10.50;10.10;;;13.50;99.90;;;;;;5073889;28;20211;-65
2023/09/25 00:22:01;;;;;;;11.10;10.70;;;13.40;99.90;;;;;;5073525;28;20207;-65
2023/09/25 00:24:28;;;;;;;11.00;10.60;;;13.30;99.90;;;;;;5073575;28;20688;-65
2023/09/25 00:26:54;;;;;;;9.90;9.60;;;13.20;99.90;;;;;;5070988;28;20218;-64
2023/09/25 00:29:21;;;;;;;11.38;10.98;;;13.20;99.90;;;;;;5071814;28;20213;-64
2023/09/25 00:31:49;;;;;;;10.10;9.80;;;13.20;99.90;;;;;;5074065;28;20211;-65
2023/09/25 00:34:16;;;;;;;10.20;9.90;;;13.10;99.90;;;;;;5074033;28;20212;-63
2023/09/25 00:36:43;;;;;;;11.00;10.60;;;13.10;99.90;;;;;;5073581;28;20211;-64
2023/09/25 00:39:10;;;;;;;11.20;10.80;;;13.10;99.90;;;;;;5074132;28;20591;-64
2023/09/25 00:41:37;;;;;;;11.55;11.15;;;13.00;99.90;;;;;;5074552;28;20231;-64
2023/09/25 00:44:04;;;;;;;10.30;10.00;;;12.90;99.90;;;;;;5073778;28;20396;-63
2023/09/25 00:46:31;;;;;;;11.00;10.60;;;12.90;99.90;;;;;;5073627;28;20330;-64
2023/09/25 00:49:00;;;;;;;10.97;10.57;;;13.00;99.90;;;;;;5075465;28;20211;-64
2023/09/25 00:51:27;;;;;;;10.80;10.40;;;12.90;99.90;;;;;;5073804;28;20231;-63
2023/09/25 00:53:54;;;;;;;11.13;10.73;;;12.90;99.90;;;;;;5074383;28;20211;-64
2023/09/25 00:56:20;;;;;;;10.33;10.03;;;12.90;99.90;;;;;;5075818;28;20295;-65
2023/09/25 00:58:47;;;;;;;10.97;10.57;;;12.90;99.90;;;;;;5075452;28;20339;-64
2023/09/25 01:01:15;;;;;;;10.98;10.57;;;12.90;99.90;;;;;;5073829;28;20233;-64
2023/09/25 01:03:41;;;;;;;11.30;10.90;;;12.90;99.90;;;;;;5074091;28;20207;-63
2023/09/25 01:06:09;;;;;;;11.43;11.02;;;12.70;99.90;;;;;;5072890;28;20232;-64
2023/09/25 01:08:36;;;;;;;11.33;10.93;;;12.80;99.90;;;;;;5072602;28;20251;-65
2023/09/25 01:11:03;;;;;;;11.95;11.55;;;12.60;99.90;;;;;;5073247;28;20227;-64
2023/09/25 01:13:30;;;;;;;11.20;10.80;;;12.50;99.90;;;;;;5069013;28;20251;-64
2023/09/25 01:15:57;;;;;;;10.88;10.48;;;12.40;99.90;;;;;;5072693;28;20626;-64
2023/09/25 01:18:24;;;;;;;11.02;10.63;;;12.40;99.90;;;;;;5072505;28;20217;-64
2023/09/25 01:20:51;;;;;;;11.13;10.73;;;12.40;99.90;;;;;;5072716;28;20697;-66
2023/09/25 01:23:19;;;;;;;11.20;10.80;;;12.40;99.90;;;;;;5068082;28;20215;-65
2023/09/25 01:25:46;;;;;;;11.07;10.67;;;12.60;99.90;;;;;;5072838;28;20607;-65
2023/09/25 01:28:13;;;;;;;11.63;11.23;;;12.40;99.90;;;;;;5069751;28;20227;-63
2023/09/25 01:30:40;;;;;;;11.05;10.65;;;12.40;99.90;;;;;;5072745;28;20250;-64
2023/09/25 01:33:07;;;;;;;11.38;10.98;;;12.40;99.90;;;;;;5072926;28;20215;-64
2023/09/25 01:35:34;;;;;;;11.60;11.20;;;12.30;99.90;;;;;;5072437;28;20214;-64
2023/09/25 01:38:03;;;;;;;11.63;11.23;;;12.30;99.90;;;;;;5072851;28;20298;-63
2023/09/25 01:40:32;;;;;;;11.53;11.13;;;12.20;99.90;;;;;;5071689;28;20231;-64
2023/09/25 01:42:59;;;;;;;11.57;11.18;;;12.10;99.90;;;;;;5072467;28;20288;-65
2023/09/25 01:45:26;;;;;;;11.85;11.45;;;12.20;99.90;;;;;;5072354;28;20681;-63
2023/09/25 01:47:54;;;;;;;12.02;11.63;;;12.10;99.90;;;;;;5072838;28;20213;-65
2023/09/25 01:50:22;;;;;;;12.05;11.65;;;12.10;99.90;;;;;;5072491;28;20700;-65
2023/09/25 01:52:52;;;;;;;11.60;11.20;;;12.00;99.90;;;;;;5073466;28;20643;-65
2023/09/25 01:55:19;;;;;;;12.23;11.82;;;11.90;99.90;;;;;;5076191;28;20273;-64
2023/09/25 01:57:47;;;;;;;12.52;12.13;;;11.90;99.90;;;;;;5090324;28;20223;-65
2023/09/25 02:00:18;;;;;;;11.70;11.30;;;11.80;99.90;;;;;;5092557;28;20295;-64
2023/09/25 02:02:45;;;;;;;11.32;10.93;;;11.80;99.90;;;;;;5086024;28;20242;-64
2023/09/25 02:05:12;;;;;;;12.45;12.05;;;11.80;99.90;;;;;;5074830;28;20235;-64
2023/09/25 02:07:39;;;;;;;11.15;10.75;;;11.70;99.90;;;;;;5077006;28;20237;-64
2023/09/25 02:10:07;;;;;;;11.15;10.75;;;11.70;99.90;;;;;;5073287;28;20227;-64
2023/09/25 02:12:34;;;;;;;11.60;11.20;;;11.70;99.90;;;;;;5073749;28;20282;-63
2023/09/25 02:15:04;;;;;;;12.35;11.95;;;11.70;99.90;;;;;;5073369;28;20283;-63
2023/09/25 02:17:30;;;;;;;11.77;11.38;;;11.60;99.90;;;;;;5074903;28;20221;-64
2023/09/25 02:20:08;;;;;;;11.87;11.47;;;11.60;99.90;;;;;;5073957;28;20249;-64
2023/09/25 02:22:36;;;;;;;11.07;10.67;;;11.60;99.90;;;;;;5072133;28;20256;-65
2023/09/25 02:25:03;;;;;;;11.93;11.53;;;11.50;99.90;;;;;;5071422;28;20214;-63
2023/09/25 02:27:29;;;;;;;12.57;12.13;;;11.50;99.90;;;;;;5070947;28;21567;-63
2023/09/25 02:29:57;;;;;;;10.97;10.57;;;11.50;99.90;;;;;;5070862;28;20227;-64
2023/09/25 02:32:25;;;;;;;10.97;10.57;;;11.50;99.90;;;;;;5070706;28;20299;-65
2023/09/25 02:34:52;;;;;;;11.07;10.68;;;11.40;99.90;;;;;;5069878;28;20230;-63
2023/09/25 02:37:19;;;;;;;11.27;10.88;;;11.40;99.90;;;;;;5070408;28;20207;-65
2023/09/25 02:39:45;;;;;;;11.60;11.20;;;11.40;99.90;;;;;;5070471;28;20743;-65
2023/09/25 02:42:12;;;;;;;10.93;10.55;;;11.40;99.90;;;;;;5070656;28;20203;-65
2023/09/25 02:44:39;;;;;;;11.80;11.30;;;11.40;99.90;;;;;;5070730;28;20211;-63
2023/09/25 02:47:06;;;;;;;11.20;10.80;;;11.40;99.90;;;;;;5071031;28;20309;-64
2023/09/25 02:49:34;;;;;;;11.57;11.18;;;11.50;99.90;;;;;;5070721;28;20215;-64
2023/09/25 02:52:01;;;;;;;11.10;10.70;;;11.50;99.90;;;;;;5071542;28;20294;-63
2023/09/25 02:54:27;;;;;;;11.70;11.30;;;11.50;99.90;;;;;;5071608;28;20279;-65
2023/09/25 02:56:54;;;;;;;11.77;11.38;;;11.40;99.90;;;;;;5072199;28;20674;-63
2023/09/25 02:59:21;;;;;;;12.30;11.90;;;11.30;99.90;;;;;;5071901;28;20215;-64
2023/09/25 03:01:48;;;;;;;11.00;10.63;;;11.30;99.90;;;;;;5072886;28;20210;-66
2023/09/25 03:04:15;;;;;;;11.20;10.80;;;11.30;99.90;;;;;;5071631;28;20648;-64
2023/09/25 03:06:43;;;;;;;10.55;10.23;;;11.30;99.90;;;;;;5071543;28;20258;-63
2023/09/25 03:09:10;;;;;;;11.57;11.18;;;11.30;99.90;;;;;;5071799;28;20207;-65
2023/09/25 03:11:36;;;;;;;11.43;11.02;;;11.30;99.90;;;;;;5075218;28;20235;-64
2023/09/25 03:14:03;;;;;;;11.13;10.73;;;11.30;99.90;;;;;;5080780;28;20289;-64
2023/09/25 03:16:31;;;;;;;11.20;10.80;;;11.20;99.90;;;;;;5073874;28;20218;-65
2023/09/25 03:18:57;;;;;;;11.53;11.13;;;11.20;99.90;;;;;;5073922;28;20203;-63
2023/09/25 03:21:24;;;;;;;11.82;11.43;;;11.20;99.90;;;;;;5071776;28;20804;-64
2023/09/25 03:23:52;;;;;;;12.37;11.93;;;11.30;99.90;;;;;;5071124;28;20211;-64
2023/09/25 03:26:20;;;;;;;10.98;10.57;;;11.20;99.90;;;;;;5070435;28;20333;-65
2023/09/25 03:28:49;;;;;;;11.63;11.23;;;11.10;99.90;;;;;;5070975;28;20207;-63
2023/09/25 03:31:16;;;;;;;12.70;12.30;;;11.20;99.90;;;;;;5071217;28;20314;-63
2023/09/25 03:33:43;;;;;;;11.73;11.33;;;11.10;99.90;;;;;;5070612;28;20215;-63
2023/09/25 03:36:11;;;;;;;12.00;11.60;;;11.10;99.90;;;;;;5070595;28;20679;-65
2023/09/25 03:38:38;;;;;;;11.90;11.50;;;11.10;99.90;;;;;;5070966;28;20218;-64
2023/09/25 03:41:07;;;;;;;12.00;11.60;;;11.10;99.90;;;;;;5070348;28;20313;-64
2023/09/25 03:43:33;;;;;;;12.48;12.07;;;11.10;99.90;;;;;;5070913;28;20207;-66
2023/09/25 03:46:00;;;;;;;11.98;11.57;;;11.00;99.90;;;;;;5071679;28;20235;-66
2023/09/25 03:48:27;;;;;;;11.90;11.50;;;11.00;99.90;;;;;;5075707;28;20298;-70
2023/09/25 03:50:54;;;;;;;13.43;12.93;;;11.00;99.90;;;;;;5076976;28;20222;-64
2023/09/25 03:53:21;;;;;;;11.70;11.30;;;10.90;99.90;;;;;;5084845;28;20290;-64
2023/09/25 03:55:48;;;;;;;12.10;11.70;;;10.80;99.90;;;;;;5083262;28;20207;-64
2023/09/25 03:58:16;;;;;;;13.87;13.30;;;10.70;99.90;;;;;;5081849;28;20309;-64
2023/09/25 04:00:43;;;;;;;14.23;13.73;;;10.70;99.90;;;;;;5081188;28;20235;-65
2023/09/25 04:03:09;;;;;;;14.30;13.70;;;10.70;99.90;;;;;;5082532;28;20290;-64
2023/09/25 04:05:36;;;;;;;15.00;14.50;;;10.60;99.90;;;;;;5082305;28;20374;-64
2023/09/25 04:08:05;;;;;;;14.05;13.55;;;10.60;99.90;;;;;;5084275;28;20271;-64
2023/09/25 04:10:32;;;;;;;14.90;14.40;;;10.50;99.90;;;;;;5077056;28;20227;-65
2023/09/25 04:12:59;;;;;;;13.57;13.07;;;10.50;99.90;;;;;;5073667;28;20231;-64
2023/09/25 04:15:27;;;;;;;12.90;12.50;;;10.40;99.90;;;;;;5074406;28;20207;-64
2023/09/25 04:17:54;;;;;;;14.50;14.00;;;10.50;99.90;;;;;;5063504;28;20749;-63
2023/09/25 04:20:25;;;;;;;14.77;14.27;;;10.50;99.90;;;;;;5073797;28;20245;-64
2023/09/25 04:22:52;;;;;;;14.00;13.50;;;10.50;99.90;;;;;;5071623;28;20295;-64
2023/09/25 04:25:20;;;;;;;14.43;13.93;;;10.50;99.90;;;;;;5057341;28;20214;-63
2023/09/25 04:27:47;;;;;;;14.52;14.02;;;10.50;99.90;;;;;;5066695;28;20227;-63
2023/09/25 04:30:15;;;;;;;14.05;13.55;;;10.50;99.90;;;;;;5074381;28;20231;-65
2023/09/25 04:32:44;;;;;;;15.13;14.63;;;10.50;99.90;;;;;;5073976;28;20257;-64
2023/09/25 04:35:12;;;;;;;14.80;14.30;;;10.40;99.90;;;;;;5074000;28;20207;-64
2023/09/25 04:37:39;;;;;;;14.32;13.85;;;10.30;99.90;;;;;;5074248;28;20211;-65
2023/09/25 04:40:13;;;;;;;14.95;14.45;;;10.30;99.90;;;;;;5074113;28;20227;-63
2023/09/25 04:42:41;;;;;;;13.43;12.98;;;10.20;99.90;;;;;;5073718;28;20245;-63
2023/09/25 04:45:12;;;;;;;14.35;13.85;;;10.20;99.90;;;;;;5069535;28;20214;-63
2023/09/25 04:47:39;;;;;;;13.10;12.68;;;10.20;99.90;;;;;;5073990;28;20245;-67
2023/09/25 04:50:09;;;;;;;14.27;13.77;;;10.20;99.90;;;;;;5074491;28;20230;-64
2023/09/25 04:52:36;;;;;;;13.70;13.23;;;10.30;99.90;;;;;;5073928;28;20211;-63
2023/09/25 04:55:06;;;;;;;14.25;13.75;;;10.20;99.90;;;;;;5068157;28;20207;-65
2023/09/25 04:57:33;;;;;;;13.90;13.40;;;10.20;99.90;;;;;;5068191;28;20200;-65
2023/09/25 05:00:03;;;;;;;14.57;14.07;;;10.20;99.90;;;;;;5071757;28;20227;-63
2023/09/25 05:02:32;;;;;;;13.57;13.10;;;10.20;99.90;;;;;;5073625;28;20205;-65
2023/09/25 05:04:58;;;;;;;14.15;13.65;;;10.20;99.90;;;;;;5066689;28;20266;-65
2023/09/25 05:07:26;;;;;;;15.32;14.82;;;10.20;99.90;;;;;;5071660;28;20219;-65
2023/09/25 05:09:53;;;;;;;13.77;13.30;;;10.10;99.90;;;;;;5068686;28;20308;-65
2023/09/25 05:12:20;;;;;;;14.60;14.10;;;10.00;99.90;;;;;;5067784;28;20208;-66
2023/09/25 05:14:47;;;;;;;14.53;14.03;;;10.00;99.90;;;;;;5065229;28;20241;-66
2023/09/25 05:17:14;;;;;;;16.23;15.63;;;10.00;99.90;;;;;;5064137;28;20199;-56
2023/09/25 05:19:41;;;;;;;15.48;14.88;;;10.80;99.90;;;;;;5062600;28;20219;-58
2023/09/25 05:22:09;;;;;;;13.50;13.00;;;11.80;99.90;;;;;;5070515;28;20504;-59
2023/09/25 05:24:37;;;;;;;12.83;12.33;;;12.40;99.90;;;;;;5072830;28;20242;-58
2023/09/25 05:27:05;;;;;;;13.45;12.95;;;12.90;99.90;;;;;;5072858;28;20223;-60
2023/09/25 05:29:32;;;;;;;12.93;12.50;;;13.20;99.90;;;;;;5071932;28;20311;-59
2023/09/25 05:31:59;;;;;;;13.02;12.52;;;12.70;99.90;;;;;;5069679;28;20696;-59
2023/09/25 05:34:26;;;;;;;13.05;12.55;;;12.10;99.90;;;;;;5063843;28;20200;-60
2023/09/25 05:36:53;;;;;;;12.32;11.93;;;11.60;99.90;;;;;;5062691;28;20667;-59
2023/09/25 05:39:24;;;;;;;12.93;12.48;;;11.10;99.90;;;;;;5070432;28;20195;-59
2023/09/25 05:41:52;;;;;;;13.43;12.95;;;10.80;99.90;;;;;;5069393;28;20210;-59
2023/09/25 05:44:19;;;;;;;12.23;11.82;;;10.70;99.90;;;;;;5066816;28;20210;-59
2023/09/25 05:46:46;;;;;;;13.18;12.68;;;11.00;99.90;;;;;;5066409;28;20800;-61
2023/09/25 05:49:13;;;;;;;12.52;12.13;;;11.60;99.90;;;;;;5069027;28;20284;-60
2023/09/25 05:51:40;;;;;;;12.55;12.15;;;11.40;99.90;;;;;;5068491;28;20231;-60
2023/09/25 05:54:06;;;;;;;12.13;11.73;;;10.90;99.90;;;;;;5073183;28;20233;-60
2023/09/25 05:56:33;;;;;;;13.55;13.05;;;10.70;99.90;;;;;;5073572;28;20203;-61
2023/09/25 05:59:02;;;;;;;13.52;13.02;;;10.50;99.90;;;;;;5073618;28;20225;-61
2023/09/25 06:01:29;;;;;;;14.55;14.05;;;10.40;99.90;;;;;;5080440;28;20231;-62
2023/09/25 06:03:57;;;;;;;16.90;16.30;;;10.30;99.90;;;;;;5088838;28;20269;-66
2023/09/25 06:06:24;;;;;;;14.80;14.30;;;10.20;99.90;;;;;;5088277;28;20230;-65
2023/09/25 06:08:51;;;;;;;15.30;14.80;;;10.20;99.90;;;;;;5085151;28;20214;-65
2023/09/25 06:11:18;;;;;;;15.93;15.38;;;10.20;99.90;;;;;;5081205;28;20323;-65
2023/09/25 06:13:44;;;;;;;15.68;15.18;;;10.20;99.90;;;;;;5079652;28;20298;-65
2023/09/25 06:16:13;;;;;;;15.10;14.60;;;10.10;99.90;;;;;;5072497;28;20213;-66
2023/09/25 06:18:41;;;;;;;14.33;13.83;;;10.10;99.90;;;;;;5072582;28;20692;-65
2023/09/25 06:21:10;;;;;;;15.15;14.65;;;10.20;99.90;;;;;;5072533;28;20223;-65
2023/09/25 06:23:37;;;;;;;14.70;14.20;;;10.30;99.90;;;;;;5068591;28;20203;-66
2023/09/25 06:26:04;;;;;;;17.38;16.77;;;10.30;99.90;;;;;;5061912;28;20203;-65
2023/09/25 06:28:32;;;;;;;15.63;15.13;;;10.40;99.90;;;;;;5068791;28;20226;-66
2023/09/25 06:30:59;;;;;;;15.20;14.70;;;10.30;99.90;;;;;;5067682;28;20575;-66
2023/09/25 06:33:37;;;;;;;14.00;13.50;;;10.40;99.90;;;;;;5070015;28;20207;-67
2023/09/25 06:36:05;;;;;;;13.85;13.35;;;10.40;99.90;;;;;;5073228;28;20222;-66
2023/09/25 06:38:37;;;;;;;15.13;14.63;;;10.50;99.90;;;;;;5070721;28;20207;-67
2023/09/25 06:41:04;;;;;;;13.50;13.00;;;10.60;99.90;;;;;;5064346;28;20220;-65
2023/09/25 06:43:31;;;;;;;14.15;13.65;;;10.60;99.90;;;;;;5067306;28;20666;-68
2023/09/25 06:45:58;;;;;;;15.43;14.83;;;10.70;99.90;;;;;;5071522;28;20214;-65
2023/09/25 06:48:25;;;;;;;16.25;15.57;;;10.80;99.90;;;;;;5071857;28;20318;-65
2023/09/25 06:50:54;;;;;;;14.50;14.00;;;11.00;99.90;;;;;;5071758;28;20705;-65
2023/09/25 06:53:20;;;;;;;16.13;15.52;;;11.10;99.90;;;;;;5071709;28;20211;-65
2023/09/25 06:55:48;;;;;;;14.30;13.80;;;11.20;99.90;;;;;;5068537;28;20630;-65
2023/09/25 06:58:15;;;;;;;12.93;12.53;;;11.40;99.90;;;;;;5072354;28;20215;-65
2023/09/25 07:00:47;;;;;;;12.73;12.32;;;11.50;99.90;;;;;;5074362;28;20580;-66
2023/09/25 07:03:14;;;;;;;12.57;12.17;;;11.60;99.90;;;;;;5073469;28;20207;-66
2023/09/25 07:05:44;;;;;;;12.10;11.70;;;11.70;99.90;;;;;;5071612;28;20215;-65
2023/09/25 07:08:12;;;;;;;12.07;11.57;;;11.80;99.90;;;;;;5071046;28;20301;-65
2023/09/25 07:10:44;;;;;;;11.10;10.70;;;12.00;99.90;;;;;;5070381;28;20318;-64
2023/09/25 07:13:11;;;;;;;11.77;11.38;;;12.10;99.90;;;;;;5060411;28;20841;-65
2023/09/25 07:15:38;;;;;;;11.60;11.20;;;12.20;99.90;;;;;;5069138;28;20302;-66
2023/09/25 07:18:06;;;;;;;11.95;11.55;;;12.40;99.90;;;;;;5069749;28;20211;-65
2023/09/25 07:20:32;;;;;;;11.77;11.37;;;12.50;99.90;;;;;;5071615;28;20227;-66
2023/09/25 07:22:59;;;;;;;11.90;11.50;;;12.60;99.90;;;;;;5072998;28;20221;-67
2023/09/25 07:25:28;;;;;;;11.98;11.57;;;12.90;99.90;;;;;;5072186;28;20298;-67
2023/09/25 07:27:55;;;;;;;12.60;12.20;;;12.90;99.90;;;;;;5071602;28;20227;-67
2023/09/25 07:30:23;;;;;;;12.43;12.02;;;13.00;99.90;;;;;;5071814;28;20280;-65
2023/09/25 07:32:49;;;;;;;11.32;10.93;;;13.10;99.90;;;;;;5072133;28;20226;-66
2023/09/25 07:35:18;;;;;;;10.33;10.03;;;13.30;99.90;;;;;;5068070;28;20211;-66
2023/09/25 07:37:45;;;;;;;11.40;11.00;;;13.50;99.90;;;;;;5063834;28;20211;-68
2023/09/25 07:40:14;;;;;;;10.60;10.20;;;13.60;99.90;;;;;;5063567;28;20272;-66
2023/09/25 07:42:42;;;;;;;10.87;10.47;;;13.80;99.90;;;;;;5071649;28;20297;-65
2023/09/25 07:45:12;;;;;;;11.33;10.93;;;13.90;99.90;;;;;;5067149;28;20222;-66
2023/09/25 07:47:39;;;;;;;11.13;10.73;;;14.10;99.90;;;;;;5070639;28;20226;-66
2023/09/25 07:50:10;;;;;;;11.03;10.63;;;14.30;99.90;;;;;;5071000;28;20718;-66
2023/09/25 07:52:38;;;;;;;11.20;10.80;;;14.40;99.90;;;;;;5070761;28;20207;-66
2023/09/25 07:55:08;;;;;;;10.83;10.43;;;14.60;99.90;;;;;;5070643;28;20579;-68
2023/09/25 07:57:36;;;;;;;10.97;10.57;;;14.80;99.90;;;;;;5071070;28;20203;-67
2023/09/25 08:00:10;;;;;;;11.47;11.07;;;14.90;99.90;;;;;;5070925;28;20322;-67
2023/09/25 08:02:39;;;;;;;12.88;12.48;;;15.10;99.90;;;;;;5071999;28;20578;-66
2023/09/25 08:05:07;;;;;;;12.57;12.07;;;15.10;99.90;;;;;;5067512;28;20211;-68
2023/09/25 08:07:34;;;;;;;12.38;11.98;;;15.00;99.90;;;;;;5054842;28;20224;-67
2023/09/25 08:10:01;;;;;;;12.52;12.02;;;15.10;99.90;;;;;;5063868;28;20231;-66
2023/09/25 08:12:28;;;;;;;18.27;17.58;;;15.10;99.90;;;;;;5058628;28;20208;-66
2023/09/25 08:14:55;;;;;;;18.17;17.48;;;15.10;99.90;;;;;;5078923;28;20271;-64
2023/09/25 08:17:23;;;;;;;13.57;13.07;;;15.10;99.90;;;;;;5082690;28;20260;-67
2023/09/25 08:19:52;;;;;;;21.20;20.30;;;15.10;99.90;;;;;;5088764;28;20249;-65
2023/09/25 08:22:20;;;;;;;14.40;13.70;;;15.30;99.90;;;;;;5078947;28;20231;-66
2023/09/25 08:24:46;;;;;;;14.47;13.87;;;15.20;99.90;;;;;;5069912;28;20294;-67
2023/09/25 08:27:13;;;;;;;14.90;14.25;;;15.20;99.90;;;;;;5070525;28;20219;-66
2023/09/25 08:29:40;;;;;;;17.97;17.17;;;15.40;99.90;;;;;;5070355;28;20217;-66
2023/09/25 08:32:08;;;;;;;14.80;14.20;;;15.40;99.90;;;;;;5070992;28;20218;-66
2023/09/25 08:34:36;;;;;;;14.57;13.98;;;15.40;99.90;;;;;;5064146;28;20283;-66
2023/09/25 08:37:03;;;;;;;14.05;13.55;;;15.50;99.90;;;;;;5070483;28;20211;-66
2023/09/25 08:39:30;;;;;;;14.38;13.77;;;15.60;99.90;;;;;;5072455;28;20203;-66
2023/09/25 08:41:58;;;;;;;13.30;12.80;;;15.80;99.90;;;;;;5066649;28;20235;-65
2023/09/25 08:44:25;;;;;;;12.48;12.00;;;15.90;99.90;;;;;;5072450;28;20199;-68
2023/09/25 08:46:53;;;;;;;12.43;11.93;;;16.00;99.90;;;;;;5068529;28;20725;-67
2023/09/25 08:49:20;;;;;;;12.40;11.90;;;15.90;99.90;;;;;;5073818;28;20218;-68
2023/09/25 08:51:48;;;;;;;12.20;11.80;;;16.10;99.90;;;;;;5075191;28;20199;-68
2023/09/25 08:54:15;;;;;;;12.80;12.30;;;16.20;99.90;;;;;;5092718;28;20234;-67
2023/09/25 08:56:43;;;;;;;12.25;11.75;;;16.40;99.90;;;;;;5093686;28;20207;-67
2023/09/25 08:59:12;;;;;;;12.25;11.75;;;16.50;99.90;;;;;;5091350;28;20211;-67
2023/09/25 09:01:39;;;;;;;12.73;12.23;;;16.60;99.90;;;;;;5088362;28;20251;-67
2023/09/25 09:04:07;;;;;;;13.20;12.70;;;16.70;99.90;;;;;;5072099;28;20290;-67
2023/09/25 09:06:34;;;;;;;12.80;12.30;;;16.80;99.90;;;;;;5069524;28;20200;-67
2023/09/25 09:09:02;;;;;;;11.93;11.52;;;16.90;99.90;;;;;;5070996;28;20286;-65
2023/09/25 09:11:29;;;;;;;12.65;12.15;;;17.10;99.90;;;;;;5070903;28;20306;-67
2023/09/25 09:13:56;;;;;;;12.63;12.13;;;17.20;99.90;;;;;;5067439;28;20215;-66
2023/09/25 09:16:23;;;;;;;12.80;12.30;;;17.20;99.90;;;;;;5075481;28;20210;-66
2023/09/25 09:18:51;;;;;;;12.73;12.23;;;17.40;99.90;;;;;;5071333;28;20863;-66
2023/09/25 09:21:23;;;;;;;13.38;12.88;;;17.40;99.90;;;;;;5067128;28;20244;-66
2023/09/25 09:23:50;;;;;;;13.35;12.85;;;17.50;99.90;;;;;;5072825;28;20227;-65
2023/09/25 09:26:19;;;;;;;13.07;12.57;;;17.50;99.90;;;;;;5069366;28;20730;-67
2023/09/25 09:28:46;;;;;;;13.23;12.73;;;17.60;99.90;;;;;;5060046;28;20307;-65
2023/09/25 09:31:17;;;;;;;12.63;12.13;;;17.70;99.90;;;;;;5073266;28;20310;-67
2023/09/25 09:33:44;;;;;;;12.10;11.70;;;17.70;99.90;;;;;;5073431;28;20658;-66
2023/09/25 09:36:12;;;;;;;13.50;13.00;;;17.80;99.90;;;;;;5072665;28;20203;-66
2023/09/25 09:38:40;;;;;;;14.65;14.15;;;17.90;99.90;;;;;;5072133;28;20249;-66
2023/09/25 09:41:07;;;;;;;14.35;13.85;;;17.90;99.90;;;;;;5070857;28;20284;-67
2023/09/25 09:43:36;;;;;;;12.00;11.60;;;18.00;99.90;;;;;;5068947;28;20210;-66
2023/09/25 09:46:03;;;;;;;12.52;12.13;;;17.90;99.90;;;;;;5069270;28;20685;-66
2023/09/25 09:48:31;;;;;;;12.40;12.00;;;18.00;99.90;;;;;;5067137;28;20239;-67
2023/09/25 09:51:03;;;;;;;12.60;12.00;;;18.20;99.90;;;;;;5062354;28;20223;-65
2023/09/25 09:53:34;;;;;;;12.15;11.75;;;18.20;99.90;;;;;;5065305;28;20227;-66
2023/09/25 09:56:02;;;;;;;12.52;12.13;;;18.40;99.90;;;;;;5062376;28;20203;-65
2023/09/25 09:58:29;;;;;;;12.63;12.23;;;18.60;99.90;;;;;;5070755;28;20200;-65
2023/09/25 10:00:59;;;;;;;16.88;16.08;;;18.80;99.90;;;;;;5074709;28;20231;-67
2023/09/25 10:03:28;;;;;;;13.98;13.38;;;18.80;99.90;;;;;;5074865;28;20231;-66
2023/09/25 10:05:56;;;;;;;13.52;12.93;;;18.70;99.90;;;;;;5073752;28;20210;-66
2023/09/25 10:08:23;;;;;;;14.25;13.75;;;18.80;99.90;;;;;;5067759;28;20216;-65
2023/09/25 10:10:52;;;;;;;13.18;12.75;;;19.00;99.90;;;;;;5072622;28;20223;-67
2023/09/25 10:13:25;;;;;;;13.82;13.32;;;19.10;99.90;;;;;;5073111;28;20203;-66
2023/09/25 10:15:53;;;;;;;14.75;14.25;;;19.20;99.90;;;;;;5076711;28;20701;-66
2023/09/25 10:18:21;;;;;;;14.18;13.68;;;19.20;99.90;;;;;;5079365;28;20195;-67
2023/09/25 10:20:48;;;;;;;18.05;17.45;;;19.30;99.90;;;;;;5076690;28;20223;-66
2023/09/25 10:23:21;;;;;;;16.42;15.82;;;19.50;99.90;;;;;;5074088;28;20573;-67
2023/09/25 10:25:50;;;;;;;14.98;14.45;;;19.50;99.90;;;;;;5067662;28;20219;-66
2023/09/25 10:28:22;;;;;;;15.40;14.90;;;19.60;99.90;;;;;;5072364;28;20280;-67
2023/09/25 10:30:49;;;;;;;14.68;14.18;;;19.70;99.90;;;;;;5069973;28;20224;-66
2023/09/25 10:33:17;;;;;;;16.90;16.20;;;19.80;99.90;;;;;;5074896;28;20201;-66
2023/09/25 10:35:48;;;;;;;15.80;15.20;;;19.80;99.90;;;;;;5061641;28;20219;-68
2023/09/25 10:38:19;;;;;;;16.05;15.50;;;19.80;99.90;;;;;;5066738;28;20200;-67
2023/09/25 10:40:48;;;;;;;15.15;14.65;;;19.80;99.90;;;;;;5055529;28;20771;-66
2023/09/25 10:43:17;;;;;;;14.00;13.50;;;19.80;99.90;;;;;;5064508;28;20210;-66
2023/09/25 10:45:44;;;;;;;14.75;14.25;;;20.00;99.90;;;;;;5071890;28;20311;-67
2023/09/25 10:48:11;;;;;;;15.15;14.65;;;20.20;99.90;;;;;;5070166;28;20223;-66
2023/09/25 10:50:38;;;;;;;14.60;14.10;;;20.30;99.90;;;;;;5072745;28;20284;-67
2023/09/25 10:53:09;;;;;;;17.20;16.60;;;20.30;99.90;;;;;;5072939;28;20276;-67
2023/09/25 10:55:37;;;;;;;16.75;16.15;;;20.30;99.90;;;;;;5064715;28;20203;-68
2023/09/25 10:58:06;;;;;;;15.07;14.57;;;20.30;99.90;;;;;;5072327;28;20303;-65
2023/09/25 11:00:34;;;;;;;15.52;15.02;;;20.40;99.90;;;;;;5065226;28;20218;-66
2023/09/25 11:03:01;;;;;;;16.67;16.08;;;20.40;99.90;;;;;;5066531;28;20214;-67
2023/09/25 11:05:29;;;;;;;14.25;13.75;;;20.70;99.90;;;;;;5065512;28;20203;-66
2023/09/25 11:07:56;;;;;;;14.20;13.70;;;20.70;99.90;;;;;;5064878;28;20225;-66
2023/09/25 11:10:29;;;;;;;14.90;14.40;;;20.90;99.90;;;;;;5064428;28;20230;-66
2023/09/25 11:12:57;;;;;;;15.15;14.65;;;20.90;99.90;;;;;;5058829;28;20289;-68
2023/09/25 11:15:25;;;;;;;15.95;15.38;;;21.00;99.90;;;;;;5065401;28;20670;-66
2023/09/25 11:17:52;;;;;;;15.00;14.50;;;21.10;99.90;;;;;;5057754;28;20598;-66
2023/09/25 11:20:19;;;;;;;15.38;14.88;;;21.00;99.90;;;;;;5061262;28;20349;-68
2023/09/25 11:22:48;;;;;;;15.27;14.77;;;21.00;99.90;;;;;;5062789;28;20217;-66
2023/09/25 11:25:16;;;;;;;14.88;14.38;;;21.00;99.90;;;;;;5069685;28;20211;-67
2023/09/25 11:28:03;;;;;;;14.98;14.48;;;21.10;99.90;;;;;;5069595;28;20578;-65
2023/09/25 11:30:30;;;;;;;14.10;13.60;;;21.40;99.90;;;;;;5069384;28;20219;-68
2023/09/25 11:32:57;;;;;;;13.90;13.40;;;21.40;99.90;;;;;;5062908;28;20203;-67
2023/09/25 11:35:27;;;;;;;14.13;13.63;;;21.30;99.90;;;;;;5066996;28;20210;-67
2023/09/25 11:37:58;;;;;;;13.32;12.90;;;21.50;99.90;;;;;;5062385;28;20215;-67
2023/09/25 11:40:25;;;;;;;14.23;13.73;;;21.60;99.90;;;;;;5063841;28;20250;-67
2023/09/25 11:42:52;;;;;;;15.23;14.73;;;21.50;99.90;;;;;;5070458;28;20213;-67
2023/09/25 11:45:20;;;;;;;14.13;13.63;;;21.60;99.90;;;;;;5066693;28;20266;-67
2023/09/25 11:47:48;;;;;;;14.18;13.68;;;21.60;99.90;;;;;;5065516;28;20273;-65
2023/09/25 11:50:16;;;;;;;13.55;13.05;;;21.70;99.90;;;;;;5065123;28;20317;-67
2023/09/25 11:52:43;;;;;;;14.43;13.93;;;21.80;99.90;;;;;;5059509;28;20216;-67
2023/09/25 11:55:11;;;;;;;14.60;14.00;;;21.90;99.90;;;;;;5070955;28;20231;-67
2023/09/25 11:57:39;;;;;;;17.88;17.17;;;22.00;99.90;;;;;;5069157;28;20203;-68
2023/09/25 12:00:07;;;;;;;14.13;13.63;;;22.00;99.90;;;;;;5078471;28;20559;-67
2023/09/25 12:02:35;;;;;;;14.75;14.25;;;21.80;99.90;;;;;;5071388;28;20204;-66
2023/09/25 12:05:03;;;;;;;15.27;14.77;;;21.90;99.90;;;;;;5062418;28;20215;-66
2023/09/25 12:07:30;;;;;;;15.70;15.10;;;21.70;99.90;;;;;;5063714;28;20619;-67
2023/09/25 12:09:58;;;;;;;15.07;14.57;;;21.70;99.90;;;;;;5073890;28;20321;-66
2023/09/25 12:12:25;;;;;;;14.93;14.43;;;21.90;99.90;;;;;;5063966;28;20195;-66
2023/09/25 12:14:53;;;;;;;18.65;17.95;;;22.10;99.90;;;;;;5067084;28;20199;-67
2023/09/25 12:17:20;;;;;;;14.88;14.38;;;22.00;99.90;;;;;;5071692;28;20674;-68
2023/09/25 12:19:48;;;;;;;14.18;13.68;;;22.10;99.90;;;;;;5074673;28;20246;-68
2023/09/25 12:22:15;;;;;;;14.70;14.20;;;22.10;99.90;;;;;;5081865;28;20239;-67
2023/09/25 12:24:42;;;;;;;14.98;14.48;;;22.20;99.90;;;;;;5086770;28;20211;-67
2023/09/25 12:27:08;;;;;;;14.88;14.38;;;22.30;99.90;;;;;;5086487;28;20278;-66
2023/09/25 12:29:35;;;;;;;14.55;14.05;;;22.20;99.90;;;;;;5086018;28;20221;-68
2023/09/25 12:32:02;;;;;;;14.90;14.40;;;22.20;99.90;;;;;;5079872;28;20260;-66